createdAt,value
2017-07-20T00:01:23.139Z,18.20
2017-07-20T00:03:50.893Z,18.30
2017-07-20T00:06:18.444Z,18.20
2017-07-20T00:08:46.045Z,18.10
2017-07-20T00:11:13.772Z,18.00
2017-07-20T00:13:41.320Z,17.90
2017-07-20T00:16:09.132Z,18.00
2017-07-20T00:18:36.702Z,18.10
2017-07-20T00:21:04.317Z,18.10
2017-07-20T00:23:31.933Z,18.10
2017-07-20T00:25:59.475Z,18.00
2017-07-20T00:28:27.057Z,18.00
2017-07-20T00:30:54.694Z,18.10
2017-07-20T00:33:22.237Z,18.10
2017-07-20T00:35:49.862Z,18.10
2017-07-20T00:38:17.521Z,18.10
2017-07-20T00:40:45.171Z,18.10
2017-07-20T00:43:13.101Z,18.10
2017-07-20T00:45:40.717Z,18.00
2017-07-20T00:48:08.361Z,18.00
2017-07-20T00:50:35.916Z,17.90
2017-07-20T00:53:03.535Z,17.80
2017-07-20T00:55:31.108Z,17.80
2017-07-20T00:57:58.677Z,17.90
2017-07-20T01:00:26.281Z,17.90
2017-07-20T01:02:54.003Z,17.80
2017-07-20T01:05:22.383Z,17.90
2017-07-20T01:07:50.091Z,17.90
2017-07-20T01:10:18.381Z,17.80
2017-07-20T01:12:46.246Z,17.80
2017-07-20T01:15:13.802Z,17.80
2017-07-20T01:17:41.948Z,17.80
2017-07-20T01:20:09.564Z,17.90
2017-07-20T01:22:37.124Z,17.90
2017-07-20T01:25:04.783Z,17.90
2017-07-20T01:27:32.372Z,17.80
2017-07-20T01:30:00.063Z,17.90
2017-07-20T01:32:27.674Z,17.90
2017-07-20T01:34:55.536Z,17.90
2017-07-20T01:37:23.116Z,17.80
2017-07-20T01:39:50.702Z,17.90
2017-07-20T01:42:18.323Z,18.00
2017-07-20T01:44:45.870Z,18.00
2017-07-20T01:47:13.458Z,18.00
2017-07-20T01:49:41.049Z,17.90
2017-07-20T01:52:08.605Z,17.80
2017-07-20T01:54:36.272Z,17.70
2017-07-20T01:57:03.965Z,17.60
2017-07-20T01:59:31.601Z,17.60
2017-07-20T02:01:59.164Z,17.60
2017-07-20T02:04:26.828Z,17.70
2017-07-20T02:06:54.405Z,17.80
2017-07-20T02:09:22.229Z,17.70
2017-07-20T02:11:49.825Z,17.60
2017-07-20T02:14:17.362Z,17.50
2017-07-20T02:16:44.910Z,17.50
2017-07-20T02:19:12.745Z,17.50
2017-07-20T02:21:40.310Z,17.60
2017-07-20T02:24:07.856Z,17.70
2017-07-20T02:26:35.457Z,17.80
2017-07-20T02:29:03.015Z,17.80
2017-07-20T02:31:30.604Z,17.80
2017-07-20T02:33:58.489Z,17.80
2017-07-20T02:36:26.069Z,17.70
2017-07-20T02:38:53.624Z,17.60
2017-07-20T02:41:21.418Z,17.60
2017-07-20T02:43:48.962Z,17.60
2017-07-20T02:46:16.538Z,17.80
2017-07-20T02:48:44.193Z,17.80
2017-07-20T02:51:11.707Z,17.80
2017-07-20T02:53:39.202Z,18.00
2017-07-20T02:56:06.808Z,18.00
2017-07-20T02:58:34.322Z,18.00
2017-07-20T03:01:01.831Z,18.00
2017-07-20T03:03:29.362Z,18.00
2017-07-20T03:05:56.874Z,18.00
2017-07-20T03:08:24.461Z,18.00
2017-07-20T03:10:52.327Z,18.10
2017-07-20T03:13:19.855Z,18.20
2017-07-20T03:15:47.361Z,18.20
2017-07-20T03:18:14.906Z,18.30
2017-07-20T03:20:42.415Z,18.30
2017-07-20T03:23:09.970Z,18.40
2017-07-20T03:25:37.791Z,18.40
2017-07-20T03:28:05.295Z,18.40
2017-07-20T03:30:32.855Z,18.40
2017-07-20T03:33:00.676Z,18.40
2017-07-20T03:35:28.487Z,18.30
2017-07-20T03:37:57.090Z,18.30
2017-07-20T03:40:25.007Z,18.40
2017-07-20T03:42:52.560Z,18.50
2017-07-20T03:45:20.205Z,18.50
2017-07-20T03:47:47.888Z,18.50
2017-07-20T03:50:15.515Z,18.40
2017-07-20T03:52:43.015Z,18.50
2017-07-20T03:55:10.580Z,18.40
2017-07-20T03:57:38.339Z,18.50
2017-07-20T04:00:05.846Z,18.50
2017-07-20T04:02:33.438Z,18.60
2017-07-20T04:05:00.994Z,18.40
2017-07-20T04:07:28.515Z,18.40
2017-07-20T04:09:56.318Z,18.40
2017-07-20T04:12:23.579Z,18.40
2017-07-20T04:14:51.163Z,18.40
2017-07-20T04:17:18.997Z,18.30
2017-07-20T04:19:46.498Z,18.30
2017-07-20T04:22:14.048Z,18.30
2017-07-20T04:24:41.595Z,18.40
2017-07-20T04:27:09.093Z,18.30
2017-07-20T04:29:36.587Z,18.30
2017-07-20T04:32:04.419Z,18.20
2017-07-20T04:34:31.962Z,18.30
2017-07-20T04:36:59.494Z,18.30
2017-07-20T04:39:27.019Z,18.40
2017-07-20T04:41:54.522Z,18.70
2017-07-20T04:44:22.025Z,18.90
2017-07-20T04:46:49.573Z,19.00
2017-07-20T04:49:17.070Z,19.10
2017-07-20T04:51:44.572Z,19.40
2017-07-20T04:54:12.280Z,19.60
2017-07-20T04:56:39.812Z,19.70
2017-07-20T04:59:07.366Z,19.80
2017-07-20T05:01:35.189Z,19.90
2017-07-20T05:04:02.683Z,19.90
2017-07-20T05:06:30.242Z,20.00
2017-07-20T05:08:57.795Z,20.20
2017-07-20T05:11:25.314Z,20.30
2017-07-20T05:13:52.835Z,20.40
2017-07-20T05:16:20.671Z,20.40
2017-07-20T05:18:48.259Z,20.40
2017-07-20T05:21:16.855Z,20.30
2017-07-20T05:23:45.275Z,20.30
2017-07-20T05:26:12.777Z,20.40
2017-07-20T05:28:40.305Z,20.40
2017-07-20T05:31:07.899Z,20.20
2017-07-20T05:33:35.399Z,20.20
2017-07-20T05:36:02.918Z,20.30
2017-07-20T05:38:30.711Z,20.20
2017-07-20T05:40:58.274Z,20.10
2017-07-20T05:43:25.789Z,20.10
2017-07-20T05:45:53.345Z,20.20
2017-07-20T05:48:20.838Z,20.50
2017-07-20T05:50:48.134Z,20.70
2017-07-20T05:53:16.070Z,20.80
2017-07-20T05:55:43.917Z,20.80
2017-07-20T05:58:11.467Z,20.90
2017-07-20T06:00:41.045Z,21.20
2017-07-20T06:03:09.039Z,21.30
2017-07-20T06:05:36.590Z,21.40
2017-07-20T06:08:04.432Z,21.40
2017-07-20T06:10:31.935Z,21.40
2017-07-20T06:12:59.434Z,21.90
2017-07-20T06:15:27.279Z,22.20
2017-07-20T06:17:55.591Z,22.40
2017-07-20T06:20:24.111Z,22.30
2017-07-20T06:22:52.106Z,22.40
2017-07-20T06:25:19.735Z,22.40
2017-07-20T06:27:48.071Z,22.10
2017-07-20T06:30:16.303Z,21.80
2017-07-20T06:32:44.093Z,21.70
2017-07-20T06:35:11.560Z,21.70
2017-07-20T06:37:39.187Z,21.80
2017-07-20T06:40:06.999Z,21.80
2017-07-20T06:42:34.783Z,22.00
2017-07-20T06:45:03.455Z,22.00
2017-07-20T06:47:31.449Z,21.90
2017-07-20T06:50:00.118Z,22.20
2017-07-20T06:52:28.384Z,22.50
2017-07-20T06:54:58.341Z,22.60
2017-07-20T06:57:27.722Z,22.80
2017-07-20T06:59:55.671Z,23.40
2017-07-20T07:02:23.976Z,23.60
2017-07-20T07:04:52.995Z,23.50
2017-07-20T07:07:20.772Z,23.80
2017-07-20T07:09:49.093Z,25.00
2017-07-20T07:12:17.212Z,25.70
2017-07-20T07:14:45.188Z,26.60
2017-07-20T07:17:13.017Z,27.80
2017-07-20T07:19:41.269Z,28.30
2017-07-20T07:22:09.284Z,28.40
2017-07-20T07:24:37.674Z,28.60
2017-07-20T07:27:06.237Z,28.40
2017-07-20T07:29:34.662Z,28.40
2017-07-20T07:32:04.060Z,28.60
2017-07-20T07:34:32.748Z,28.70
2017-07-20T07:37:01.697Z,28.10
2017-07-20T07:39:30.189Z,27.70
2017-07-20T07:41:58.427Z,27.20
2017-07-20T07:44:27.394Z,27.40
2017-07-20T07:46:55.402Z,26.50
2017-07-20T07:49:24.248Z,26.40
2017-07-20T07:51:53.479Z,26.50
2017-07-20T07:54:21.500Z,27.00
2017-07-20T07:56:50.418Z,26.10
2017-07-20T07:59:18.390Z,26.60
2017-07-20T08:01:46.287Z,27.20
2017-07-20T08:04:15.735Z,27.90
2017-07-20T08:06:45.234Z,27.80
2017-07-20T08:09:15.562Z,27.90
2017-07-20T08:11:43.867Z,27.70
2017-07-20T08:14:13.001Z,27.50
2017-07-20T08:16:41.199Z,27.60
2017-07-20T08:19:09.178Z,27.60
2017-07-20T08:21:36.954Z,27.40
2017-07-20T08:24:05.506Z,27.50
2017-07-20T08:26:33.684Z,27.70
2017-07-20T08:29:01.690Z,27.30
2017-07-20T08:31:29.528Z,26.90
2017-07-20T08:33:57.123Z,26.70
2017-07-20T08:36:24.615Z,26.90
2017-07-20T08:38:52.133Z,26.60
2017-07-20T08:41:20.044Z,26.60
2017-07-20T08:43:47.547Z,26.40
2017-07-20T08:46:15.044Z,26.30
2017-07-20T08:48:42.671Z,26.10
2017-07-20T08:51:10.238Z,25.80
2017-07-20T08:53:37.827Z,25.70
2017-07-20T08:56:05.979Z,25.50
2017-07-20T08:58:33.523Z,25.30
2017-07-20T09:01:01.051Z,25.00
2017-07-20T09:03:28.590Z,24.70
2017-07-20T09:05:56.088Z,24.50
2017-07-20T09:08:23.591Z,24.20
2017-07-20T09:10:51.475Z,24.00
2017-07-20T09:13:18.990Z,23.50
2017-07-20T09:15:46.530Z,23.10
2017-07-20T09:18:14.904Z,22.80
2017-07-20T09:20:42.439Z,22.50
2017-07-20T09:23:09.952Z,22.40
2017-07-20T09:25:37.575Z,22.20
2017-07-20T09:28:05.142Z,22.20
2017-07-20T09:30:32.648Z,22.10
2017-07-20T09:33:00.216Z,21.80
2017-07-20T09:35:27.715Z,21.50
2017-07-20T09:37:55.289Z,21.20
2017-07-20T09:40:22.871Z,20.80
2017-07-20T09:42:50.434Z,20.70
2017-07-20T09:45:29.166Z,20.50
2017-07-20T09:47:57.398Z,20.10
2017-07-20T09:50:24.898Z,20.10
2017-07-20T09:52:52.726Z,20.00
2017-07-20T09:55:20.239Z,20.00
2017-07-20T09:57:47.767Z,19.90
2017-07-20T10:00:15.587Z,19.70
2017-07-20T10:02:43.095Z,19.60
2017-07-20T10:05:11.144Z,19.60
2017-07-20T10:07:38.738Z,19.70
2017-07-20T10:10:06.326Z,19.70
2017-07-20T10:12:33.841Z,19.60
2017-07-20T10:15:01.728Z,19.90
2017-07-20T10:17:29.227Z,19.90
2017-07-20T10:19:56.726Z,20.10
2017-07-20T10:22:24.317Z,20.20
2017-07-20T10:24:52.454Z,20.30
2017-07-20T10:27:20.062Z,20.40
2017-07-20T10:29:47.899Z,20.40
2017-07-20T10:32:15.390Z,20.40
2017-07-20T10:34:42.882Z,20.50
2017-07-20T10:37:10.742Z,20.50
2017-07-20T10:39:38.268Z,20.70
2017-07-20T10:42:05.809Z,20.80
2017-07-20T10:44:33.601Z,20.90
2017-07-20T10:47:01.105Z,21.10
2017-07-20T10:49:28.759Z,21.10
2017-07-20T10:51:56.334Z,21.10
2017-07-20T10:54:23.859Z,21.10
2017-07-20T10:56:51.500Z,21.10
2017-07-20T10:59:19.050Z,21.00
2017-07-20T11:01:46.578Z,20.90
2017-07-20T11:04:14.203Z,20.60
2017-07-20T11:06:42.294Z,20.40
2017-07-20T11:09:09.903Z,20.30
2017-07-20T11:11:37.414Z,20.10
2017-07-20T11:14:04.978Z,19.90
2017-07-20T11:16:33.146Z,19.70
2017-07-20T11:19:00.679Z,19.60
2017-07-20T11:21:28.571Z,19.40
2017-07-20T11:23:56.115Z,19.30
2017-07-20T11:26:23.615Z,19.50
2017-07-20T11:28:51.165Z,19.30
2017-07-20T11:31:18.662Z,19.20
2017-07-20T11:33:46.158Z,19.20
2017-07-20T11:36:13.753Z,19.20
2017-07-20T11:38:41.251Z,19.30
2017-07-20T11:41:08.758Z,19.30
2017-07-20T11:43:36.572Z,19.40
2017-07-20T11:46:04.103Z,19.80
2017-07-20T11:48:32.062Z,20.10
2017-07-20T11:51:00.023Z,20.60
2017-07-20T11:53:27.592Z,20.40
2017-07-20T11:55:55.215Z,20.30
2017-07-20T11:58:22.730Z,20.20
2017-07-20T12:00:50.314Z,20.10
2017-07-20T12:03:17.879Z,20.50
2017-07-20T12:05:45.385Z,21.20
2017-07-20T12:08:13.015Z,22.80
2017-07-20T12:10:40.603Z,23.20
2017-07-20T12:13:08.247Z,23.50
2017-07-20T12:15:35.903Z,23.30
2017-07-20T12:18:04.002Z,23.00
2017-07-20T12:20:31.829Z,23.10
2017-07-20T12:22:59.424Z,22.80
2017-07-20T12:25:27.014Z,22.60
2017-07-20T12:27:54.531Z,22.20
2017-07-20T12:30:22.421Z,22.00
2017-07-20T12:32:50.071Z,21.90
2017-07-20T12:35:17.828Z,21.80
2017-07-20T12:37:45.475Z,21.70
2017-07-20T12:40:13.042Z,21.40
2017-07-20T12:42:40.559Z,21.50
2017-07-20T12:45:08.058Z,21.80
2017-07-20T12:47:35.619Z,22.20
2017-07-20T12:50:02.885Z,22.30
2017-07-20T12:52:30.414Z,22.20
2017-07-20T12:54:58.279Z,22.30
2017-07-20T12:57:25.786Z,22.90
2017-07-20T12:59:53.538Z,23.40
2017-07-20T13:02:21.371Z,24.20
2017-07-20T13:04:48.874Z,25.30
2017-07-20T13:07:16.757Z,26.00
2017-07-20T13:09:44.666Z,26.00
2017-07-20T13:12:12.443Z,26.20
2017-07-20T13:14:41.220Z,26.80
2017-07-20T13:17:08.875Z,27.50
2017-07-20T13:19:36.498Z,28.10
2017-07-20T13:22:04.355Z,28.20
2017-07-20T13:24:32.194Z,29.10
2017-07-20T13:26:59.814Z,29.80
2017-07-20T13:29:28.411Z,29.80
2017-07-20T13:31:56.347Z,29.60
2017-07-20T13:34:23.870Z,29.30
2017-07-20T13:36:51.395Z,29.20
2017-07-20T13:39:19.190Z,30.40
2017-07-20T13:41:47.041Z,31.30
2017-07-20T13:44:14.559Z,30.80
2017-07-20T13:46:42.140Z,30.10
2017-07-20T13:49:09.643Z,29.40
2017-07-20T13:51:37.187Z,28.60
2017-07-20T13:54:04.985Z,29.20
2017-07-20T13:56:32.500Z,29.30
2017-07-20T13:59:00.038Z,29.90
2017-07-20T14:01:27.783Z,30.60
2017-07-20T14:03:55.629Z,30.00
2017-07-20T14:06:23.274Z,29.80
2017-07-20T14:08:51.368Z,29.70
2017-07-20T14:11:19.419Z,30.00
2017-07-20T14:13:48.426Z,29.90
2017-07-20T14:16:16.191Z,30.20
2017-07-20T14:18:43.724Z,30.10
2017-07-20T14:21:13.586Z,30.10
2017-07-20T14:23:41.176Z,30.20
2017-07-20T14:26:08.756Z,29.70
2017-07-20T14:28:36.306Z,29.00
2017-07-20T14:31:04.218Z,29.10
2017-07-20T14:33:32.136Z,29.70
2017-07-20T14:36:00.595Z,29.30
2017-07-20T14:38:28.179Z,29.20
2017-07-20T14:40:55.748Z,27.70
2017-07-20T14:43:23.361Z,27.20
2017-07-20T14:45:51.566Z,26.70
2017-07-20T14:48:19.359Z,26.50
2017-07-20T14:50:46.911Z,26.50
2017-07-20T14:53:14.344Z,26.60
2017-07-20T14:58:15.988Z,26.40
2017-07-20T15:00:43.528Z,27.20
2017-07-20T15:03:11.499Z,28.20
2017-07-20T15:05:39.292Z,29.00
2017-07-20T15:08:06.943Z,29.00
2017-07-20T15:10:35.422Z,29.30
2017-07-20T15:13:04.102Z,29.30
2017-07-20T15:15:31.753Z,30.40
2017-07-20T15:17:59.559Z,30.40
2017-07-20T15:20:27.249Z,30.40
2017-07-20T15:22:54.939Z,31.10
2017-07-20T15:25:22.722Z,30.40
2017-07-20T15:27:50.480Z,30.60
2017-07-20T15:30:17.997Z,30.10
2017-07-20T15:32:45.527Z,29.30
2017-07-20T15:35:15.007Z,28.90
2017-07-20T15:37:42.527Z,29.10
2017-07-20T15:40:10.372Z,29.40
2017-07-20T15:42:38.078Z,29.30
2017-07-20T15:45:05.604Z,30.00
2017-07-20T15:47:33.118Z,31.30
2017-07-20T15:50:01.451Z,31.70
2017-07-20T15:52:28.979Z,31.80
2017-07-20T15:54:58.755Z,31.70
2017-07-20T15:57:26.399Z,30.40
2017-07-20T15:59:53.902Z,29.90
2017-07-20T16:02:21.435Z,30.00
2017-07-20T16:04:49.341Z,30.00
2017-07-20T16:07:17.184Z,29.00
2017-07-20T16:09:44.835Z,28.30
2017-07-20T16:12:13.395Z,27.90
2017-07-20T16:14:41.763Z,27.00
2017-07-20T16:17:09.263Z,26.40
2017-07-20T16:19:36.850Z,26.10
2017-07-20T16:22:04.384Z,25.90
2017-07-20T16:24:31.927Z,25.30
2017-07-20T16:26:59.726Z,24.80
2017-07-20T16:29:28.251Z,23.00
2017-07-20T16:31:55.898Z,21.20
2017-07-20T16:34:23.628Z,19.70
2017-07-20T16:36:51.647Z,18.80
2017-07-20T16:39:19.457Z,18.20
2017-07-20T16:41:47.385Z,18.20
2017-07-20T16:44:15.199Z,18.00
2017-07-20T16:46:43.074Z,18.00
2017-07-20T16:49:10.941Z,18.20
2017-07-20T16:51:38.574Z,18.70
2017-07-20T16:54:06.123Z,19.10
2017-07-20T16:56:33.824Z,19.80
2017-07-20T16:59:01.447Z,20.50
2017-07-20T17:01:28.981Z,21.20
2017-07-20T17:03:56.643Z,21.70
2017-07-20T17:06:24.312Z,22.20
2017-07-20T17:08:51.826Z,22.20
2017-07-20T17:11:19.403Z,22.70
2017-07-20T17:13:46.994Z,23.10
2017-07-20T17:16:14.521Z,22.90
2017-07-20T17:18:42.092Z,23.20
2017-07-20T17:21:10.821Z,23.00
2017-07-20T17:23:38.679Z,22.80
2017-07-20T17:26:06.483Z,22.50
2017-07-20T17:31:12.460Z,21.90
2017-07-20T17:33:40.379Z,21.90
2017-07-20T17:36:07.983Z,21.90
2017-07-20T17:38:36.459Z,21.60
2017-07-20T17:41:05.113Z,21.50
2017-07-20T17:43:32.749Z,21.20
2017-07-20T17:46:00.515Z,21.10
2017-07-20T17:48:29.216Z,21.10
2017-07-20T17:50:58.248Z,21.10
2017-07-20T17:53:25.890Z,21.20
2017-07-20T17:55:53.460Z,21.00
2017-07-20T17:58:21.433Z,21.00
2017-07-20T18:00:49.420Z,21.10
2017-07-20T18:03:17.167Z,21.30
2017-07-20T18:05:44.748Z,21.40
2017-07-20T18:08:12.247Z,21.50
2017-07-20T18:10:39.747Z,21.40
2017-07-20T18:13:07.742Z,21.30
2017-07-20T18:15:35.358Z,20.90
2017-07-20T18:18:02.852Z,20.70
2017-07-20T18:20:30.699Z,20.40
2017-07-20T18:22:58.211Z,20.10
2017-07-20T18:25:25.789Z,20.50
2017-07-20T18:27:53.587Z,20.80
2017-07-20T18:30:21.144Z,21.10
2017-07-20T18:32:49.159Z,21.60
2017-07-20T18:35:16.979Z,21.80
2017-07-20T18:37:44.737Z,21.90
2017-07-20T18:40:12.526Z,22.10
2017-07-20T18:42:40.391Z,22.10
2017-07-20T18:45:07.902Z,22.20
2017-07-20T18:47:35.687Z,21.90
2017-07-20T18:50:03.655Z,21.40
2017-07-20T18:52:31.448Z,21.10
2017-07-20T18:55:00.267Z,21.00
2017-07-20T18:57:28.452Z,20.80
2017-07-20T18:59:56.243Z,20.60
2017-07-20T19:02:24.193Z,20.40
2017-07-20T19:04:51.968Z,20.10
2017-07-20T19:07:19.587Z,19.90
2017-07-20T19:09:47.419Z,19.60
2017-07-20T19:12:15.200Z,19.30
2017-07-20T19:14:42.815Z,19.20
2017-07-20T19:17:10.507Z,19.10
2017-07-20T19:19:38.032Z,18.90
2017-07-20T19:22:05.824Z,18.80
2017-07-20T19:24:33.476Z,18.70
2017-07-20T19:27:00.989Z,18.60
2017-07-20T19:29:28.507Z,18.60
2017-07-20T19:31:56.814Z,18.50
2017-07-20T19:34:24.320Z,18.30
2017-07-20T19:36:51.866Z,18.20
2017-07-20T19:39:19.827Z,18.10
2017-07-20T19:41:47.327Z,18.10
2017-07-20T19:44:14.822Z,18.00
2017-07-20T19:46:42.411Z,18.00
2017-07-20T19:49:10.634Z,18.00
2017-07-20T19:51:38.170Z,17.80
2017-07-20T19:54:05.727Z,17.80
2017-07-20T19:56:33.235Z,17.70
2017-07-20T19:59:01.033Z,17.70
2017-07-20T20:01:28.636Z,17.70
2017-07-20T20:03:56.410Z,17.70
2017-07-20T20:06:24.259Z,17.70
2017-07-20T20:08:52.166Z,17.70
2017-07-20T20:11:19.922Z,17.70
2017-07-20T20:13:47.531Z,17.70
2017-07-20T20:16:15.445Z,17.60
2017-07-20T20:18:43.028Z,17.60
2017-07-20T20:21:10.530Z,17.60
2017-07-20T20:23:38.319Z,17.50
2017-07-20T20:26:05.844Z,17.40
2017-07-20T20:28:33.354Z,17.40
2017-07-20T20:31:00.926Z,17.30
2017-07-20T20:33:28.552Z,17.30
2017-07-20T20:35:56.091Z,17.40
2017-07-20T20:38:23.683Z,17.40
2017-07-20T20:40:51.574Z,17.30
2017-07-20T20:43:19.222Z,17.30
2017-07-20T20:45:46.897Z,17.30
2017-07-20T20:48:14.752Z,17.30
2017-07-20T20:50:42.306Z,17.30
2017-07-20T20:53:09.861Z,17.20
2017-07-20T20:55:37.460Z,17.30
2017-07-20T20:58:04.958Z,17.10
2017-07-20T21:00:32.450Z,17.20
2017-07-20T21:03:00.039Z,17.20
2017-07-20T21:05:27.644Z,17.10
2017-07-20T21:07:55.151Z,17.00
2017-07-20T21:10:23.068Z,17.00
2017-07-20T21:12:50.575Z,16.90
2017-07-20T21:15:18.074Z,16.90
2017-07-20T21:17:45.763Z,17.00
2017-07-20T21:20:13.283Z,17.00
2017-07-20T21:22:40.791Z,17.00
2017-07-20T21:25:08.602Z,16.90
2017-07-20T21:27:37.115Z,16.90
2017-07-20T21:30:04.979Z,16.80
2017-07-20T21:32:32.525Z,16.80
2017-07-20T21:35:00.802Z,16.80
2017-07-20T21:37:28.307Z,16.80
2017-07-20T21:39:55.839Z,16.80
2017-07-20T21:42:23.434Z,16.80
2017-07-20T21:44:51.430Z,16.80
2017-07-20T21:47:18.967Z,16.80
2017-07-20T21:49:46.527Z,16.80
2017-07-20T21:52:14.167Z,16.70
2017-07-20T21:54:41.683Z,16.70
2017-07-20T21:57:09.526Z,16.70
2017-07-20T21:59:37.839Z,16.80
2017-07-20T22:02:05.348Z,16.70
2017-07-20T22:04:32.938Z,16.70
2017-07-20T22:07:00.517Z,16.60
2017-07-20T22:09:28.028Z,16.70
2017-07-20T22:11:55.619Z,16.70
2017-07-20T22:14:23.179Z,16.60
2017-07-20T22:16:50.688Z,16.60
2017-07-20T22:19:18.286Z,16.60
2017-07-20T22:21:45.804Z,16.70
2017-07-20T22:24:13.316Z,16.70
2017-07-20T22:26:41.114Z,16.70
2017-07-20T22:29:08.664Z,16.60
2017-07-20T22:31:36.171Z,16.50
2017-07-20T22:34:04.020Z,16.60
2017-07-20T22:36:32.016Z,16.60
2017-07-20T22:38:59.584Z,16.60
2017-07-20T22:41:27.155Z,16.60
2017-07-20T22:43:54.676Z,16.70
2017-07-20T22:46:22.178Z,16.70
2017-07-20T22:48:50.600Z,16.70
2017-07-20T22:51:18.587Z,16.60
2017-07-20T22:53:46.753Z,16.60
2017-07-20T22:56:14.263Z,16.50
2017-07-20T22:58:41.835Z,16.50
2017-07-20T23:01:09.342Z,16.40
2017-07-20T23:03:36.904Z,16.40
2017-07-20T23:06:04.759Z,16.30
2017-07-20T23:08:32.295Z,16.40
2017-07-20T23:10:59.846Z,16.40
2017-07-20T23:13:27.634Z,16.40
2017-07-20T23:15:55.143Z,16.30
2017-07-20T23:18:22.648Z,16.30
2017-07-20T23:20:50.222Z,16.20
2017-07-20T23:23:17.739Z,16.20
2017-07-20T23:25:45.251Z,16.20
2017-07-20T23:28:13.058Z,16.20
2017-07-20T23:30:40.651Z,16.20
2017-07-20T23:33:08.155Z,16.10
2017-07-20T23:35:35.724Z,16.20
2017-07-20T23:38:03.269Z,16.20
2017-07-20T23:40:30.779Z,16.20
2017-07-20T23:42:58.402Z,16.30
2017-07-20T23:45:25.940Z,16.20
2017-07-20T23:47:53.483Z,16.10
2017-07-20T23:50:21.613Z,16.10
2017-07-20T23:52:49.126Z,16.00
2017-07-20T23:55:16.670Z,15.90
2017-07-20T23:57:44.320Z,15.90
